This is the latest recevied weather packets stored in our database for station/object IZ2XCK-13. If no packets are shown the sender has not sent any weather packets the latest 10 day(s).
| Time | Temp. | Humidity | Pressure | Rain* | Wind** | Luminosity | Snow |
|---|---|---|---|---|---|---|---|
| 1777975522 | 12.78° C | 87% | 1014.8 hPa | - | - | - | - |
| 1777974322 | 12.78° C | 87% | 1015 hPa | - | - | - | - |
| 1777973122 | 12.78° C | 79% | 1015.1 hPa | - | - | - | - |
| 1777971921 | 13.89° C | 64% | 1015.2 hPa | - | - | - | - |
| 1777970721 | 12.78° C | 80% | 1015.2 hPa | - | - | - | - |
| 1777969521 | 12.78° C | 68% | 1015 hPa | - | - | - | - |
| 1777968321 | 13.33° C | 70% | 1014.8 hPa | - | - | - | - |
| 1777967120 | 13.89° C | 62% | 1014.8 hPa | - | - | - | - |
| 1777965920 | 13.89° C | 63% | 1014.4 hPa | - | - | - | - |
| 1777964720 | 13.89° C | 58% | 1014.2 hPa | - | - | - | - |
| 1777963519 | 14.44° C | 51% | 1014.1 hPa | - | - | - | - |
| 1777962319 | 13.89° C | 51% | 1014.2 hPa | - | - | - | - |
| 1777961119 | 13.33° C | 56% | 1014.2 hPa | - | - | - | - |
| 1777959918 | 12.78° C | 58% | 1014.3 hPa | - | - | - | - |
| 1777958718 | 13.89° C | 50% | 1013.8 hPa | - | - | - | - |
| 1777957518 | 14.44° C | 52% | 1013.8 hPa | - | - | - | - |
| 1777956317 | 13.33° C | 53% | 1013.8 hPa | - | - | - | - |
| 1777955117 | 13.89° C | 49% | 1013.8 hPa | - | - | - | - |
| 1777953917 | 14.44° C | 47% | 1014 hPa | - | - | - | - |
| 1777952716 | 14.44° C | 48% | 1013.9 hPa | - | - | - | - |
| 1777951516 | 13.89° C | 50% | 1013.7 hPa | - | - | - | - |
| 1777950316 | 13.89° C | 49% | 1014.7 hPa | - | - | - | - |
| 1777949115 | 13.89° C | 50% | 1014.8 hPa | - | - | - | - |
| 1777947915 | 13.89° C | 49% | 1014.8 hPa | - | - | - | - |
| 1777946715 | 13.89° C | 50% | 1014.9 hPa | - | - | - | - |
* Rain since midnight (hover to see other rain measurements)
** Current wind speed in m/s (hover to see current wind gust speed)